createdAt,value
2019-03-26T00:01:57.947Z,-84
2019-03-26T00:04:30.548Z,-83
2019-03-26T00:07:03.195Z,-84
2019-03-26T00:09:36.123Z,-84
2019-03-26T00:12:08.821Z,-84
2019-03-26T00:14:41.763Z,-83
2019-03-26T00:17:14.378Z,-83
2019-03-26T00:19:46.994Z,-86
2019-03-26T00:22:19.630Z,-86
2019-03-26T00:24:52.246Z,-85
2019-03-26T00:27:25.747Z,-83
2019-03-26T00:29:58.354Z,-84
2019-03-26T00:32:31.008Z,-84
2019-03-26T00:35:03.707Z,-84
2019-03-26T00:37:36.364Z,-84
2019-03-26T00:40:09.466Z,-83
2019-03-26T00:42:42.427Z,-83
2019-03-26T00:45:15.081Z,-84
2019-03-26T00:47:47.679Z,-85
2019-03-26T00:50:20.603Z,-84
2019-03-26T00:52:54.172Z,-84
2019-03-26T00:55:27.169Z,-84
2019-03-26T00:58:01.651Z,-84
2019-03-26T01:00:45.087Z,-83
2019-03-26T01:03:18.079Z,-84
2019-03-26T01:05:50.715Z,-84
2019-03-26T01:08:23.507Z,-85
2019-03-26T01:10:56.197Z,-84
2019-03-26T01:13:29.382Z,-84
2019-03-26T01:16:02.271Z,-84
2019-03-26T01:18:34.876Z,-84
2019-03-26T01:21:07.921Z,-84
2019-03-26T01:23:40.545Z,-85
2019-03-26T01:26:13.210Z,-84
2019-03-26T01:28:46.148Z,-83
2019-03-26T01:31:18.808Z,-84
2019-03-26T01:33:51.428Z,-84
2019-03-26T01:36:24.692Z,-84
2019-03-26T01:38:57.294Z,-84
2019-03-26T01:41:29.942Z,-85
2019-03-26T01:44:02.591Z,-85
2019-03-26T01:46:35.613Z,-84
2019-03-26T01:49:08.240Z,-84
2019-03-26T01:51:41.160Z,-84
2019-03-26T01:54:13.794Z,-84
2019-03-26T01:56:46.474Z,-84
2019-03-26T01:59:19.072Z,-85
2019-03-26T02:01:51.726Z,-84
2019-03-26T02:04:24.329Z,-85
2019-03-26T02:06:57.010Z,-85
2019-03-26T02:09:29.611Z,-85
2019-03-26T02:12:02.407Z,-85
2019-03-26T02:14:35.002Z,-84
2019-03-26T02:17:07.938Z,-84
2019-03-26T02:19:40.562Z,-84
2019-03-26T02:22:13.240Z,-85
2019-03-26T02:24:45.863Z,-85
2019-03-26T02:27:18.582Z,-85
2019-03-26T02:29:51.235Z,-85
2019-03-26T02:32:24.010Z,-85
2019-03-26T02:34:56.738Z,-85
2019-03-26T02:37:29.370Z,-83
2019-03-26T02:40:01.989Z,-85
2019-03-26T02:42:34.620Z,-84
2019-03-26T02:45:07.849Z,-84
2019-03-26T02:47:40.533Z,-85
2019-03-26T02:50:13.257Z,-85
2019-03-26T02:52:47.025Z,-84
2019-03-26T02:55:20.035Z,-84
2019-03-26T02:57:52.708Z,-85
2019-03-26T03:00:25.323Z,-84
2019-03-26T03:02:58.288Z,-84
2019-03-26T03:05:35.675Z,-85
2019-03-26T03:08:05.774Z,-85
2019-03-26T03:10:38.382Z,-85
2019-03-26T03:13:11.092Z,-84
2019-03-26T03:15:43.696Z,-84
2019-03-26T03:18:16.473Z,-85
2019-03-26T03:20:49.084Z,-85
2019-03-26T03:23:21.770Z,-85
2019-03-26T03:25:54.379Z,-84
2019-03-26T03:28:27.426Z,-85
2019-03-26T03:31:00.344Z,-85
2019-03-26T03:33:33.017Z,-84
2019-03-26T03:36:06.029Z,-84
2019-03-26T03:38:41.353Z,-85
2019-03-26T03:41:13.038Z,-84
2019-03-26T03:43:45.703Z,-84
2019-03-26T03:46:18.322Z,-85
2019-03-26T03:48:51.306Z,-85
2019-03-26T03:51:26.587Z,-85
2019-03-26T03:54:00.043Z,-85
2019-03-26T03:56:34.025Z,-85
2019-03-26T03:59:06.772Z,-86
2019-03-26T04:01:39.762Z,-84
2019-03-26T04:04:12.450Z,-85
2019-03-26T04:06:46.264Z,-85
2019-03-26T04:09:18.952Z,-85
2019-03-26T04:11:51.558Z,-85
2019-03-26T04:14:24.531Z,-85
2019-03-26T04:16:57.174Z,-85
2019-03-26T04:19:29.799Z,-85
2019-03-26T04:22:02.445Z,-85
2019-03-26T04:24:35.474Z,-85
2019-03-26T04:27:08.793Z,-84
2019-03-26T04:29:41.472Z,-84
2019-03-26T04:32:14.102Z,-85
2019-03-26T04:34:46.760Z,-85
2019-03-26T04:37:19.428Z,-85
2019-03-26T04:39:52.105Z,-85
2019-03-26T04:42:24.710Z,-85
2019-03-26T04:44:57.377Z,-85
2019-03-26T04:47:29.990Z,-84
2019-03-26T04:50:02.657Z,-84
2019-03-26T04:52:35.595Z,-84
2019-03-26T04:55:08.583Z,-85
2019-03-26T04:57:41.478Z,-85
2019-03-26T05:00:15.258Z,-85
2019-03-26T05:02:48.528Z,-85
2019-03-26T05:05:21.187Z,-85
2019-03-26T05:07:54.138Z,-85
2019-03-26T05:10:26.827Z,-85
2019-03-26T05:12:59.789Z,-86
2019-03-26T05:15:32.437Z,-85
2019-03-26T05:18:05.182Z,-85
2019-03-26T05:20:37.868Z,-86
2019-03-26T05:23:10.474Z,-85
2019-03-26T05:25:43.819Z,-85
2019-03-26T05:28:17.435Z,-85
2019-03-26T05:30:50.534Z,-85
2019-03-26T05:33:23.155Z,-85
2019-03-26T05:35:56.112Z,-86
2019-03-26T05:38:29.347Z,-84
2019-03-26T05:41:02.069Z,-84
2019-03-26T05:43:34.698Z,-86
2019-03-26T05:46:07.344Z,-86
2019-03-26T05:48:39.979Z,-84
2019-03-26T05:51:13.093Z,-84
2019-03-26T05:53:45.739Z,-84
2019-03-26T05:56:18.862Z,-84
2019-03-26T05:58:52.375Z,-83
2019-03-26T06:01:25.607Z,-84
2019-03-26T06:03:58.622Z,-85
2019-03-26T06:06:32.118Z,-84
2019-03-26T06:09:05.635Z,-83
2019-03-26T06:11:38.571Z,-83
2019-03-26T06:14:11.622Z,-85
2019-03-26T06:16:44.233Z,-85
2019-03-26T06:19:17.239Z,-86
2019-03-26T06:21:50.004Z,-86
2019-03-26T06:24:22.678Z,-86
2019-03-26T06:26:55.597Z,-85
2019-03-26T06:29:28.277Z,-86
2019-03-26T06:32:01.451Z,-86
2019-03-26T06:34:34.126Z,-85
2019-03-26T06:37:17.423Z,-86
2019-03-26T06:39:41.554Z,-85
2019-03-26T06:42:14.329Z,-85
2019-03-26T06:44:47.119Z,-86
2019-03-26T06:47:19.761Z,-86
2019-03-26T06:49:52.922Z,-87
2019-03-26T06:52:25.574Z,-84
2019-03-26T06:54:58.269Z,-83
2019-03-26T06:57:35.898Z,-86
2019-03-26T07:00:07.257Z,-87
2019-03-26T07:02:40.361Z,-87
2019-03-26T07:05:13.757Z,-87
2019-03-26T07:07:46.378Z,-88
2019-03-26T07:10:23.992Z,-86
2019-03-26T07:12:56.794Z,-87
2019-03-26T07:15:29.494Z,-88
2019-03-26T07:18:02.146Z,-88
2019-03-26T07:20:35.264Z,-87
2019-03-26T07:23:08.512Z,-87
2019-03-26T07:25:41.633Z,-88
2019-03-26T07:28:14.253Z,-88
2019-03-26T07:30:48.276Z,-88
2019-03-26T07:33:21.116Z,-87
2019-03-26T07:35:53.807Z,-88
2019-03-26T07:38:26.473Z,-88
2019-03-26T07:40:59.155Z,-79
2019-03-26T07:43:32.086Z,-81
2019-03-26T07:46:04.777Z,-80
2019-03-26T07:48:37.700Z,-80
2019-03-26T07:51:10.824Z,-80
2019-03-26T07:53:43.722Z,-80
2019-03-26T07:56:17.432Z,-80
2019-03-26T07:58:50.121Z,-80
2019-03-26T08:01:23.216Z,-80
2019-03-26T08:03:55.842Z,-81
2019-03-26T08:06:28.645Z,-85
2019-03-26T08:09:01.717Z,-78
2019-03-26T08:11:35.190Z,-78
2019-03-26T08:14:08.198Z,-79
2019-03-26T08:16:40.952Z,-79
2019-03-26T08:19:13.710Z,-78
2019-03-26T08:21:46.384Z,-79
2019-03-26T08:24:19.466Z,-80
2019-03-26T08:26:52.807Z,-78
2019-03-26T08:29:25.435Z,-79
2019-03-26T08:31:58.522Z,-79
2019-03-26T08:34:31.582Z,-78
2019-03-26T08:37:04.211Z,-79
2019-03-26T08:39:37.239Z,-78
2019-03-26T08:42:10.214Z,-79
2019-03-26T08:44:42.856Z,-78
2019-03-26T08:47:15.785Z,-78
2019-03-26T08:49:48.602Z,-81
2019-03-26T08:52:21.543Z,-78
2019-03-26T08:54:54.193Z,-80
2019-03-26T08:57:26.790Z,-78
2019-03-26T09:00:00.250Z,-78
2019-03-26T09:02:33.276Z,-78
2019-03-26T09:05:06.671Z,-78
2019-03-26T09:07:39.630Z,-79
2019-03-26T09:10:13.110Z,-80
2019-03-26T09:12:45.996Z,-80
2019-03-26T09:15:18.657Z,-78
2019-03-26T09:17:51.256Z,-78
2019-03-26T09:20:24.246Z,-78
2019-03-26T09:22:56.857Z,-78
2019-03-26T09:25:29.529Z,-80
2019-03-26T09:28:02.132Z,-78
2019-03-26T09:30:34.827Z,-79
2019-03-26T09:33:08.404Z,-79
2019-03-26T09:35:41.085Z,-79
2019-03-26T09:38:14.933Z,-79
2019-03-26T09:40:47.589Z,-79
2019-03-26T09:43:20.568Z,-79
2019-03-26T09:45:53.217Z,-78
2019-03-26T09:48:26.112Z,-78
2019-03-26T09:50:59.115Z,-78
2019-03-26T09:53:31.761Z,-79
2019-03-26T09:56:04.404Z,-78
2019-03-26T09:58:37.126Z,-78
2019-03-26T10:01:10.153Z,-78
2019-03-26T10:03:42.774Z,-78
2019-03-26T10:06:23.209Z,-79
2019-03-26T10:08:52.767Z,-79
2019-03-26T10:11:24.262Z,-79
2019-03-26T10:13:56.884Z,-79
2019-03-26T10:16:29.804Z,-78
2019-03-26T10:19:02.456Z,-78
2019-03-26T10:21:35.137Z,-78
2019-03-26T10:24:08.208Z,-79
2019-03-26T10:26:40.914Z,-78
2019-03-26T10:29:29.197Z,-79
2019-03-26T10:31:48.547Z,-79
2019-03-26T10:34:21.377Z,-78
2019-03-26T10:36:54.439Z,-78
2019-03-26T10:39:27.127Z,-78
2019-03-26T10:41:59.795Z,-77
2019-03-26T10:44:32.738Z,-79
2019-03-26T10:47:05.406Z,-78
2019-03-26T10:49:38.409Z,-78
2019-03-26T10:52:11.092Z,-79
2019-03-26T10:54:43.942Z,-78
2019-03-26T10:57:16.604Z,-80
2019-03-26T10:59:49.355Z,-80
2019-03-26T11:02:22.083Z,-80
2019-03-26T11:04:54.705Z,-79
2019-03-26T11:07:27.668Z,-79
2019-03-26T11:10:00.738Z,-80
2019-03-26T11:12:33.525Z,-79
2019-03-26T11:15:07.429Z,-79
2019-03-26T11:17:40.089Z,-79
2019-03-26T11:20:12.905Z,-79
2019-03-26T11:22:45.916Z,-79
2019-03-26T11:25:18.947Z,-79
2019-03-26T11:27:51.620Z,-79
2019-03-26T11:30:24.647Z,-79
2019-03-26T11:32:57.654Z,-79
2019-03-26T11:35:30.285Z,-79
2019-03-26T11:38:03.064Z,-80
2019-03-26T11:40:35.698Z,-79
2019-03-26T11:43:08.644Z,-79
2019-03-26T11:45:41.369Z,-79
2019-03-26T11:48:14.025Z,-79
2019-03-26T11:50:46.633Z,-80
2019-03-26T11:53:19.523Z,-79
2019-03-26T11:55:52.228Z,-79
2019-03-26T11:58:30.268Z,-78
2019-03-26T12:00:59.749Z,-78
2019-03-26T12:03:32.388Z,-79
2019-03-26T12:06:05.425Z,-78
2019-03-26T12:08:39.344Z,-79
2019-03-26T12:11:12.600Z,-78
2019-03-26T12:13:46.029Z,-78
2019-03-26T12:16:18.643Z,-78
2019-03-26T12:18:51.415Z,-79
2019-03-26T12:21:24.126Z,-79
2019-03-26T12:23:57.154Z,-79
2019-03-26T12:26:29.764Z,-79
2019-03-26T12:29:02.427Z,-79
2019-03-26T12:31:35.080Z,-79
2019-03-26T12:34:08.192Z,-79
2019-03-26T12:36:41.561Z,-79
2019-03-26T12:39:14.982Z,-79
2019-03-26T12:41:47.955Z,-79
2019-03-26T12:44:20.619Z,-79
2019-03-26T12:46:53.395Z,-79
2019-03-26T12:49:26.078Z,-78
2019-03-26T12:51:59.658Z,-78
2019-03-26T12:54:32.344Z,-78
2019-03-26T12:57:05.261Z,-78
2019-03-26T12:59:38.969Z,-78
2019-03-26T13:02:11.620Z,-78
2019-03-26T13:04:44.289Z,-79
2019-03-26T13:07:17.216Z,-79
2019-03-26T13:09:50.084Z,-78
2019-03-26T13:12:22.714Z,-78
2019-03-26T13:14:55.700Z,-78
2019-03-26T13:17:28.338Z,-78
2019-03-26T13:20:01.321Z,-78
2019-03-26T13:22:33.941Z,-79
2019-03-26T13:25:06.879Z,-78
2019-03-26T13:27:39.494Z,-78
2019-03-26T13:30:14.352Z,-80
2019-03-26T13:32:46.969Z,-81
2019-03-26T13:35:19.959Z,-78
2019-03-26T13:37:52.570Z,-78
2019-03-26T13:40:27.396Z,-80
2019-03-26T13:42:59.569Z,-80
2019-03-26T13:45:33.043Z,-80
2019-03-26T13:48:05.634Z,-78
2019-03-26T13:50:38.299Z,-79
2019-03-26T13:53:10.905Z,-78
2019-03-26T13:55:43.952Z,-78
2019-03-26T13:58:16.662Z,-78
2019-03-26T14:00:49.330Z,-79
2019-03-26T14:03:22.277Z,-79
2019-03-26T14:05:55.344Z,-79
2019-03-26T14:08:28.264Z,-78
2019-03-26T14:11:01.032Z,-79
2019-03-26T14:13:34.019Z,-78
2019-03-26T14:16:06.679Z,-78
2019-03-26T14:18:39.304Z,-78
2019-03-26T14:21:12.303Z,-78
2019-03-26T14:23:45.301Z,-79
2019-03-26T14:26:18.154Z,-78
2019-03-26T14:28:50.753Z,-79
2019-03-26T14:31:23.453Z,-78
2019-03-26T14:33:56.414Z,-80
2019-03-26T14:36:29.783Z,-80
2019-03-26T14:39:02.397Z,-80
2019-03-26T14:41:35.058Z,-80
2019-03-26T14:44:07.973Z,-79
2019-03-26T14:46:40.763Z,-79
2019-03-26T14:49:13.379Z,-79
2019-03-26T14:51:46.046Z,-80
2019-03-26T14:54:18.683Z,-79
2019-03-26T14:56:51.364Z,-79
2019-03-26T14:59:24.339Z,-78
2019-03-26T15:01:57.388Z,-78
2019-03-26T15:04:30.030Z,-80
2019-03-26T15:07:02.699Z,-78
2019-03-26T15:09:35.328Z,-78
2019-03-26T15:12:08.038Z,-78
2019-03-26T15:14:40.655Z,-78
2019-03-26T15:17:13.322Z,-78
2019-03-26T15:19:45.948Z,-78
2019-03-26T15:22:18.606Z,-79
2019-03-26T15:24:51.225Z,-78
2019-03-26T15:27:24.013Z,-78
2019-03-26T15:29:56.986Z,-80
2019-03-26T15:32:29.748Z,-80
2019-03-26T15:35:02.720Z,-80
2019-03-26T15:37:35.399Z,-80
2019-03-26T15:40:08.508Z,-79
2019-03-26T15:42:41.202Z,-78
2019-03-26T15:45:15.066Z,-80
2019-03-26T15:47:48.075Z,-79
2019-03-26T15:50:41.399Z,-79
2019-03-26T15:53:14.554Z,-79
2019-03-26T15:55:47.365Z,-78
2019-03-26T15:58:20.020Z,-79
2019-03-26T16:00:52.671Z,-78
2019-03-26T16:03:26.312Z,-78
2019-03-26T16:05:58.924Z,-78
2019-03-26T16:08:31.678Z,-78
2019-03-26T16:11:04.399Z,-77
2019-03-26T16:13:37.401Z,-76
2019-03-26T16:16:10.002Z,-77
2019-03-26T16:18:42.662Z,-77
2019-03-26T16:21:15.273Z,-77
2019-03-26T16:23:47.926Z,-77
2019-03-26T16:26:20.831Z,-77
2019-03-26T16:28:53.621Z,-77
2019-03-26T16:31:26.679Z,-78
2019-03-26T16:33:59.714Z,-77
2019-03-26T16:36:32.637Z,-77
2019-03-26T16:39:06.760Z,-78
2019-03-26T16:41:49.054Z,-78
2019-03-26T16:44:13.908Z,-80
2019-03-26T16:46:46.557Z,-79
2019-03-26T16:49:20.066Z,-79
2019-03-26T16:51:53.202Z,-79
2019-03-26T16:54:25.860Z,-79
2019-03-26T16:56:58.512Z,-79
2019-03-26T16:59:34.020Z,-81
2019-03-26T17:02:06.631Z,-80
2019-03-26T17:04:39.490Z,-79
2019-03-26T17:07:12.903Z,-79
2019-03-26T17:09:45.499Z,-79
2019-03-26T17:12:19.104Z,-79
2019-03-26T17:14:52.352Z,-80
2019-03-26T17:17:25.088Z,-79
2019-03-26T17:19:57.724Z,-79
2019-03-26T17:22:30.342Z,-80
2019-03-26T17:25:03.088Z,-80
2019-03-26T17:27:35.722Z,-80
2019-03-26T17:30:08.772Z,-79
2019-03-26T17:32:42.055Z,-79
2019-03-26T17:35:14.713Z,-80
2019-03-26T17:37:58.932Z,-79
2019-03-26T17:40:22.009Z,-80
2019-03-26T17:42:56.521Z,-80
2019-03-26T17:45:29.542Z,-79
2019-03-26T17:48:02.229Z,-83
2019-03-26T17:50:34.957Z,-83
2019-03-26T17:53:07.963Z,-84
2019-03-26T17:55:40.620Z,-83
2019-03-26T17:58:13.312Z,-83
2019-03-26T18:00:47.257Z,-83
2019-03-26T18:03:26.256Z,-83
2019-03-26T18:05:54.631Z,-81
2019-03-26T18:08:27.558Z,-82
2019-03-26T18:11:00.190Z,-81
2019-03-26T18:13:33.176Z,-81
2019-03-26T18:16:05.816Z,-81
2019-03-26T18:18:38.537Z,-79
2019-03-26T18:21:11.141Z,-80
2019-03-26T18:23:44.087Z,-81
2019-03-26T18:26:16.721Z,-80
2019-03-26T18:28:49.462Z,-80
2019-03-26T18:31:22.094Z,-81
2019-03-26T18:33:54.916Z,-80
2019-03-26T18:36:27.913Z,-80
2019-03-26T18:39:00.595Z,-82
2019-03-26T18:41:33.254Z,-82
2019-03-26T18:44:06.236Z,-82
2019-03-26T18:46:38.873Z,-80
2019-03-26T18:49:11.816Z,-80
2019-03-26T18:51:44.432Z,-80
2019-03-26T18:54:17.085Z,-79
2019-03-26T18:56:49.727Z,-81
2019-03-26T18:59:22.398Z,-81
2019-03-26T19:01:55.039Z,-81
2019-03-26T19:04:28.081Z,-81
2019-03-26T19:07:00.708Z,-82
2019-03-26T19:09:33.387Z,-82
2019-03-26T19:12:06.042Z,-81
2019-03-26T19:14:38.735Z,-82
2019-03-26T19:17:11.370Z,-81
2019-03-26T19:19:44.982Z,-82
2019-03-26T19:22:17.608Z,-81
2019-03-26T19:24:50.572Z,-81
2019-03-26T19:27:23.527Z,-81
2019-03-26T19:29:56.200Z,-81
2019-03-26T19:32:28.878Z,-82
2019-03-26T19:35:01.672Z,-80
2019-03-26T19:37:34.373Z,-79
2019-03-26T19:40:07.640Z,-81
2019-03-26T19:42:40.950Z,-80
2019-03-26T19:45:13.754Z,-81
2019-03-26T19:47:46.688Z,-80
2019-03-26T19:50:19.735Z,-79
2019-03-26T19:52:52.359Z,-80
2019-03-26T19:55:25.388Z,-82
2019-03-26T19:57:58.361Z,-80
2019-03-26T20:00:31.471Z,-80
2019-03-26T20:03:04.094Z,-80
2019-03-26T20:05:36.752Z,-80
2019-03-26T20:08:09.677Z,-80
2019-03-26T20:10:42.702Z,-76
2019-03-26T20:13:24.186Z,-79
2019-03-26T20:15:50.012Z,-78
2019-03-26T20:18:22.957Z,-77
2019-03-26T20:20:56.077Z,-78
2019-03-26T20:23:28.692Z,-77
2019-03-26T20:26:01.336Z,-79
2019-03-26T20:28:33.936Z,-78
2019-03-26T20:31:06.644Z,-79
2019-03-26T20:33:42.219Z,-78
2019-03-26T20:36:13.602Z,-78
2019-03-26T20:38:46.735Z,-79
2019-03-26T20:41:19.385Z,-79
2019-03-26T20:43:52.042Z,-83
2019-03-26T20:46:25.048Z,-84
2019-03-26T20:48:57.700Z,-84
2019-03-26T20:51:30.386Z,-85
2019-03-26T20:54:03.625Z,-86
2019-03-26T20:56:40.621Z,-83
2019-03-26T20:59:11.970Z,-84
2019-03-26T21:01:45.623Z,-85
2019-03-26T21:04:19.151Z,-84
2019-03-26T21:06:52.095Z,-85
2019-03-26T21:09:24.568Z,-84
2019-03-26T21:11:57.550Z,-86
2019-03-26T21:14:30.232Z,-86
2019-03-26T21:17:02.904Z,-85
2019-03-26T21:19:35.551Z,-85
2019-03-26T21:22:09.058Z,-85
2019-03-26T21:24:41.726Z,-85
2019-03-26T21:27:14.407Z,-85
2019-03-26T21:29:47.398Z,-85
2019-03-26T21:32:20.774Z,-85
2019-03-26T21:34:53.566Z,-85
2019-03-26T21:37:26.724Z,-85
2019-03-26T21:39:59.896Z,-84
2019-03-26T21:42:32.862Z,-85
2019-03-26T21:45:06.520Z,-85
2019-03-26T21:47:39.214Z,-84
2019-03-26T21:50:12.382Z,-85
2019-03-26T21:52:45.406Z,-85
2019-03-26T21:55:18.635Z,-86
2019-03-26T21:57:51.327Z,-86
2019-03-26T22:00:24.345Z,-86
2019-03-26T22:02:58.512Z,-86
2019-03-26T22:05:31.757Z,-86
2019-03-26T22:08:04.414Z,-86
2019-03-26T22:10:37.321Z,-86
2019-03-26T22:13:10.338Z,-86
2019-03-26T22:15:43.617Z,-86
2019-03-26T22:18:16.665Z,-84
2019-03-26T22:20:49.613Z,-85
2019-03-26T22:23:22.604Z,-86
2019-03-26T22:25:55.511Z,-86
2019-03-26T22:28:28.402Z,-85
2019-03-26T22:31:01.162Z,-84
2019-03-26T22:33:33.792Z,-85
2019-03-26T22:36:06.615Z,-85
2019-03-26T22:38:39.660Z,-84
2019-03-26T22:41:12.348Z,-84
2019-03-26T22:43:45.334Z,-84
2019-03-26T22:46:18.330Z,-84
2019-03-26T22:48:51.280Z,-87
2019-03-26T22:51:23.971Z,-84
2019-03-26T22:53:57.320Z,-86
2019-03-26T22:56:30.001Z,-85
2019-03-26T22:59:02.924Z,-85
2019-03-26T23:01:35.660Z,-85
2019-03-26T23:04:08.298Z,-85
2019-03-26T23:06:40.980Z,-84
2019-03-26T23:09:13.616Z,-84
2019-03-26T23:11:46.305Z,-84
2019-03-26T23:14:18.955Z,-83
2019-03-26T23:16:51.628Z,-87
2019-03-26T23:19:24.237Z,-83
2019-03-26T23:21:57.263Z,-84
2019-03-26T23:24:29.877Z,-85
2019-03-26T23:27:02.929Z,-84
2019-03-26T23:29:35.561Z,-86
2019-03-26T23:32:08.304Z,-86
2019-03-26T23:34:41.217Z,-84
2019-03-26T23:37:14.198Z,-85
2019-03-26T23:39:46.828Z,-85
2019-03-26T23:42:19.803Z,-85
2019-03-26T23:44:58.622Z,-85
2019-03-26T23:47:27.705Z,-84
2019-03-26T23:50:00.405Z,-84
2019-03-26T23:52:33.071Z,-84
2019-03-26T23:55:06.232Z,-84
2019-03-26T23:57:39.086Z,-84
